sensor_id;sensor_type;location;lat;lon;timestamp;P1;durP1;ratioP1;P2;durP2;ratioP2
44456;SDS011;30159;49.316;8.558;2022-10-16T00:01:38;1.30;;;1.20;;
44456;SDS011;30159;49.316;8.558;2022-10-16T00:04:05;1.13;;;1.03;;
44456;SDS011;30159;49.316;8.558;2022-10-16T00:06:32;1.30;;;1.20;;
44456;SDS011;30159;49.316;8.558;2022-10-16T00:08:59;1.30;;;1.20;;
44456;SDS011;30159;49.316;8.558;2022-10-16T00:11:26;3.43;;;1.00;;
44456;SDS011;30159;49.316;8.558;2022-10-16T00:13:56;1.13;;;1.03;;
44456;SDS011;30159;49.316;8.558;2022-10-16T00:16:24;1.40;;;1.23;;
44456;SDS011;30159;49.316;8.558;2022-10-16T00:18:51;1.30;;;1.20;;
44456;SDS011;30159;49.316;8.558;2022-10-16T00:21:19;5.13;;;1.10;;
44456;SDS011;30159;49.316;8.558;2022-10-16T00:23:47;1.30;;;1.20;;
44456;SDS011;30159;49.316;8.558;2022-10-16T00:26:17;1.30;;;1.20;;
44456;SDS011;30159;49.316;8.558;2022-10-16T00:28:45;1.30;;;1.20;;
44456;SDS011;30159;49.316;8.558;2022-10-16T00:31:13;1.33;;;1.23;;
44456;SDS011;30159;49.316;8.558;2022-10-16T00:33:40;1.73;;;1.23;;
44456;SDS011;30159;49.316;8.558;2022-10-16T00:36:08;2.70;;;1.40;;
44456;SDS011;30159;49.316;8.558;2022-10-16T00:38:38;2.27;;;1.30;;
44456;SDS011;30159;49.316;8.558;2022-10-16T00:41:05;4.17;;;1.30;;
44456;SDS011;30159;49.316;8.558;2022-10-16T00:43:34;1.37;;;1.13;;
44456;SDS011;30159;49.316;8.558;2022-10-16T00:46:04;1.40;;;1.30;;
44456;SDS011;30159;49.316;8.558;2022-10-16T00:48:38;2.53;;;1.43;;
44456;SDS011;30159;49.316;8.558;2022-10-16T00:51:04;1.20;;;1.10;;
44456;SDS011;30159;49.316;8.558;2022-10-16T00:53:32;1.33;;;1.23;;
44456;SDS011;30159;49.316;8.558;2022-10-16T00:55:59;6.83;;;1.40;;
44456;SDS011;30159;49.316;8.558;2022-10-16T00:58:25;1.23;;;1.13;;
44456;SDS011;30159;49.316;8.558;2022-10-16T01:00:52;1.47;;;1.30;;
44456;SDS011;30159;49.316;8.558;2022-10-16T01:03:23;5.87;;;1.20;;
44456;SDS011;30159;49.316;8.558;2022-10-16T01:05:54;1.37;;;1.27;;
44456;SDS011;30159;49.316;8.558;2022-10-16T01:08:30;1.30;;;1.20;;
44456;SDS011;30159;49.316;8.558;2022-10-16T01:11:06;2.27;;;1.13;;
44456;SDS011;30159;49.316;8.558;2022-10-16T01:13:41;2.10;;;1.07;;
44456;SDS011;30159;49.316;8.558;2022-10-16T01:16:11;2.53;;;1.60;;
44456;SDS011;30159;49.316;8.558;2022-10-16T01:18:43;1.93;;;1.10;;
44456;SDS011;30159;49.316;8.558;2022-10-16T01:21:14;1.60;;;1.20;;
44456;SDS011;30159;49.316;8.558;2022-10-16T01:23:48;1.20;;;1.10;;
44456;SDS011;30159;49.316;8.558;2022-10-16T01:26:26;7.70;;;1.27;;
44456;SDS011;30159;49.316;8.558;2022-10-16T01:29:05;1.57;;;1.20;;
44456;SDS011;30159;49.316;8.558;2022-10-16T01:31:35;1.37;;;1.27;;
44456;SDS011;30159;49.316;8.558;2022-10-16T01:34:06;1.80;;;1.20;;
44456;SDS011;30159;49.316;8.558;2022-10-16T01:36:41;1.40;;;1.30;;
44456;SDS011;30159;49.316;8.558;2022-10-16T01:39:11;1.30;;;1.20;;
44456;SDS011;30159;49.316;8.558;2022-10-16T01:41:41;2.50;;;1.43;;
44456;SDS011;30159;49.316;8.558;2022-10-16T01:44:12;4.23;;;1.50;;
44456;SDS011;30159;49.316;8.558;2022-10-16T01:46:43;4.60;;;1.50;;
44456;SDS011;30159;49.316;8.558;2022-10-16T01:49:12;2.63;;;1.23;;
44456;SDS011;30159;49.316;8.558;2022-10-16T01:51:39;1.40;;;1.30;;
44456;SDS011;30159;49.316;8.558;2022-10-16T01:54:08;1.60;;;1.50;;
44456;SDS011;30159;49.316;8.558;2022-10-16T01:56:37;2.53;;;1.30;;
44456;SDS011;30159;49.316;8.558;2022-10-16T01:59:06;2.23;;;1.10;;
44456;SDS011;30159;49.316;8.558;2022-10-16T02:01:38;1.40;;;1.30;;
44456;SDS011;30159;49.316;8.558;2022-10-16T02:04:08;2.77;;;1.10;;
44456;SDS011;30159;49.316;8.558;2022-10-16T02:06:39;1.40;;;1.30;;
44456;SDS011;30159;49.316;8.558;2022-10-16T02:09:05;2.50;;;1.50;;
44456;SDS011;30159;49.316;8.558;2022-10-16T02:11:32;6.33;;;1.40;;
44456;SDS011;30159;49.316;8.558;2022-10-16T02:14:00;1.27;;;1.17;;
44456;SDS011;30159;49.316;8.558;2022-10-16T02:16:32;1.67;;;1.47;;
44456;SDS011;30159;49.316;8.558;2022-10-16T02:19:01;1.50;;;1.40;;
44456;SDS011;30159;49.316;8.558;2022-10-16T02:21:29;1.70;;;1.60;;
44456;SDS011;30159;49.316;8.558;2022-10-16T02:24:02;1.43;;;1.33;;
44456;SDS011;30159;49.316;8.558;2022-10-16T02:26:35;1.77;;;1.33;;
44456;SDS011;30159;49.316;8.558;2022-10-16T02:29:07;2.50;;;1.40;;
44456;SDS011;30159;49.316;8.558;2022-10-16T02:31:38;3.10;;;1.40;;
44456;SDS011;30159;49.316;8.558;2022-10-16T02:34:11;1.43;;;1.33;;
44456;SDS011;30159;49.316;8.558;2022-10-16T02:36:39;2.47;;;1.67;;
44456;SDS011;30159;49.316;8.558;2022-10-16T02:39:07;3.53;;;1.30;;
44456;SDS011;30159;49.316;8.558;2022-10-16T02:41:34;1.33;;;1.23;;
44456;SDS011;30159;49.316;8.558;2022-10-16T02:44:01;2.50;;;1.90;;
44456;SDS011;30159;49.316;8.558;2022-10-16T02:46:28;2.90;;;1.30;;
44456;SDS011;30159;49.316;8.558;2022-10-16T02:48:54;1.50;;;1.33;;
44456;SDS011;30159;49.316;8.558;2022-10-16T02:51:22;1.97;;;1.37;;
44456;SDS011;30159;49.316;8.558;2022-10-16T02:53:49;3.43;;;1.30;;
44456;SDS011;30159;49.316;8.558;2022-10-16T02:56:15;1.37;;;1.27;;
44456;SDS011;30159;49.316;8.558;2022-10-16T02:58:42;1.77;;;1.27;;
44456;SDS011;30159;49.316;8.558;2022-10-16T03:01:08;2.10;;;1.40;;
44456;SDS011;30159;49.316;8.558;2022-10-16T03:03:37;15.77;;;1.70;;
44456;SDS011;30159;49.316;8.558;2022-10-16T03:06:03;1.50;;;1.40;;
44456;SDS011;30159;49.316;8.558;2022-10-16T03:08:32;1.30;;;1.20;;
44456;SDS011;30159;49.316;8.558;2022-10-16T03:10:58;5.43;;;1.37;;
44456;SDS011;30159;49.316;8.558;2022-10-16T03:13:25;2.03;;;1.40;;
44456;SDS011;30159;49.316;8.558;2022-10-16T03:15:51;1.50;;;1.40;;
44456;SDS011;30159;49.316;8.558;2022-10-16T03:18:18;1.40;;;1.30;;
44456;SDS011;30159;49.316;8.558;2022-10-16T03:20:44;1.60;;;1.50;;
44456;SDS011;30159;49.316;8.558;2022-10-16T03:23:11;2.03;;;1.50;;
44456;SDS011;30159;49.316;8.558;2022-10-16T03:25:39;1.97;;;1.10;;
44456;SDS011;30159;49.316;8.558;2022-10-16T03:28:05;2.00;;;1.60;;
44456;SDS011;30159;49.316;8.558;2022-10-16T03:30:32;3.40;;;1.60;;
44456;SDS011;30159;49.316;8.558;2022-10-16T03:32:59;1.37;;;1.27;;
44456;SDS011;30159;49.316;8.558;2022-10-16T03:35:25;1.97;;;1.60;;
44456;SDS011;30159;49.316;8.558;2022-10-16T03:37:52;1.63;;;1.53;;
44456;SDS011;30159;49.316;8.558;2022-10-16T03:40:18;1.60;;;1.50;;
44456;SDS011;30159;49.316;8.558;2022-10-16T03:42:46;3.30;;;1.40;;
44456;SDS011;30159;49.316;8.558;2022-10-16T03:45:13;4.20;;;1.70;;
44456;SDS011;30159;49.316;8.558;2022-10-16T03:47:39;4.60;;;1.40;;
44456;SDS011;30159;49.316;8.558;2022-10-16T03:50:07;1.40;;;1.30;;
44456;SDS011;30159;49.316;8.558;2022-10-16T03:52:34;2.63;;;1.30;;
44456;SDS011;30159;49.316;8.558;2022-10-16T03:55:00;2.07;;;1.20;;
44456;SDS011;30159;49.316;8.558;2022-10-16T03:57:27;4.43;;;1.33;;
44456;SDS011;30159;49.316;8.558;2022-10-16T03:59:55;2.10;;;1.60;;
44456;SDS011;30159;49.316;8.558;2022-10-16T04:02:21;1.40;;;1.30;;
44456;SDS011;30159;49.316;8.558;2022-10-16T04:04:48;2.40;;;1.40;;
44456;SDS011;30159;49.316;8.558;2022-10-16T04:07:14;3.10;;;2.80;;
44456;SDS011;30159;49.316;8.558;2022-10-16T04:09:41;2.90;;;1.53;;
44456;SDS011;30159;49.316;8.558;2022-10-16T04:12:07;1.63;;;1.37;;
44456;SDS011;30159;49.316;8.558;2022-10-16T04:14:34;1.70;;;1.33;;
44456;SDS011;30159;49.316;8.558;2022-10-16T04:17:02;2.20;;;1.47;;
44456;SDS011;30159;49.316;8.558;2022-10-16T04:19:28;1.50;;;1.40;;
44456;SDS011;30159;49.316;8.558;2022-10-16T04:21:55;1.40;;;1.30;;
44456;SDS011;30159;49.316;8.558;2022-10-16T04:24:21;1.63;;;1.33;;
44456;SDS011;30159;49.316;8.558;2022-10-16T04:26:48;2.50;;;1.23;;
44456;SDS011;30159;49.316;8.558;2022-10-16T04:29:14;2.80;;;1.40;;
44456;SDS011;30159;49.316;8.558;2022-10-16T04:31:41;2.57;;;1.50;;
44456;SDS011;30159;49.316;8.558;2022-10-16T04:34:08;1.73;;;1.30;;
44456;SDS011;30159;49.316;8.558;2022-10-16T04:36:35;3.00;;;1.30;;
44456;SDS011;30159;49.316;8.558;2022-10-16T04:39:01;4.40;;;2.87;;
44456;SDS011;30159;49.316;8.558;2022-10-16T04:41:28;1.77;;;1.67;;
44456;SDS011;30159;49.316;8.558;2022-10-16T04:43:54;3.33;;;1.70;;
44456;SDS011;30159;49.316;8.558;2022-10-16T04:46:21;4.60;;;1.30;;
44456;SDS011;30159;49.316;8.558;2022-10-16T04:48:48;4.77;;;1.60;;
44456;SDS011;30159;49.316;8.558;2022-10-16T04:51:15;4.60;;;1.60;;
44456;SDS011;30159;49.316;8.558;2022-10-16T04:53:43;2.93;;;1.50;;
44456;SDS011;30159;49.316;8.558;2022-10-16T04:56:10;1.90;;;1.70;;
44456;SDS011;30159;49.316;8.558;2022-10-16T04:58:36;1.60;;;1.50;;
44456;SDS011;30159;49.316;8.558;2022-10-16T05:01:03;3.57;;;1.57;;
44456;SDS011;30159;49.316;8.558;2022-10-16T05:03:30;3.10;;;1.50;;
44456;SDS011;30159;49.316;8.558;2022-10-16T05:05:56;1.63;;;1.30;;
44456;SDS011;30159;49.316;8.558;2022-10-16T05:08:24;1.43;;;1.33;;
44456;SDS011;30159;49.316;8.558;2022-10-16T05:10:51;1.97;;;1.47;;
44456;SDS011;30159;49.316;8.558;2022-10-16T05:13:17;1.40;;;1.30;;
44456;SDS011;30159;49.316;8.558;2022-10-16T05:15:47;7.50;;;1.70;;
44456;SDS011;30159;49.316;8.558;2022-10-16T05:18:14;1.70;;;1.60;;
44456;SDS011;30159;49.316;8.558;2022-10-16T05:20:40;1.73;;;1.63;;
44456;SDS011;30159;49.316;8.558;2022-10-16T06:38:45;8.10;;;6.50;;
44456;SDS011;30159;49.316;8.558;2022-10-16T06:41:12;5.60;;;5.10;;
44456;SDS011;30159;49.316;8.558;2022-10-16T06:43:39;5.63;;;4.70;;
44456;SDS011;30159;49.316;8.558;2022-10-16T06:46:07;3.90;;;3.63;;
44456;SDS011;30159;49.316;8.558;2022-10-16T06:48:35;3.30;;;3.00;;
44456;SDS011;30159;49.316;8.558;2022-10-16T06:51:03;3.30;;;3.10;;
44456;SDS011;30159;49.316;8.558;2022-10-16T06:53:32;2.20;;;2.00;;
44456;SDS011;30159;49.316;8.558;2022-10-16T06:56:07;2.57;;;2.37;;
44456;SDS011;30159;49.316;8.558;2022-10-16T06:58:34;3.83;;;2.63;;
44456;SDS011;30159;49.316;8.558;2022-10-16T07:01:01;2.30;;;2.10;;
44456;SDS011;30159;49.316;8.558;2022-10-16T07:03:28;3.90;;;3.40;;
44456;SDS011;30159;49.316;8.558;2022-10-16T07:05:54;6.43;;;5.83;;
44456;SDS011;30159;49.316;8.558;2022-10-16T07:08:21;5.20;;;4.53;;
44456;SDS011;30159;49.316;8.558;2022-10-16T07:10:48;5.13;;;4.63;;
44456;SDS011;30159;49.316;8.558;2022-10-16T07:13:15;4.83;;;4.30;;
44456;SDS011;30159;49.316;8.558;2022-10-16T07:15:42;2.87;;;1.83;;
44456;SDS011;30159;49.316;8.558;2022-10-16T07:18:08;2.30;;;2.10;;
44456;SDS011;30159;49.316;8.558;2022-10-16T07:20:35;2.23;;;1.70;;
44456;SDS011;30159;49.316;8.558;2022-10-16T07:23:02;3.20;;;2.47;;
44456;SDS011;30159;49.316;8.558;2022-10-16T07:25:28;2.30;;;2.10;;
44456;SDS011;30159;49.316;8.558;2022-10-16T07:27:55;3.23;;;2.93;;
44456;SDS011;30159;49.316;8.558;2022-10-16T07:30:23;7.60;;;6.80;;
44456;SDS011;30159;49.316;8.558;2022-10-16T07:32:50;3.30;;;3.10;;
44456;SDS011;30159;49.316;8.558;2022-10-16T07:35:16;1.67;;;1.57;;
44456;SDS011;30159;49.316;8.558;2022-10-16T07:37:44;1.93;;;1.63;;
44456;SDS011;30159;49.316;8.558;2022-10-16T07:40:11;3.70;;;1.80;;
44456;SDS011;30159;49.316;8.558;2022-10-16T07:42:38;2.13;;;1.47;;
44456;SDS011;30159;49.316;8.558;2022-10-16T07:45:05;1.90;;;1.70;;
44456;SDS011;30159;49.316;8.558;2022-10-16T07:47:33;2.40;;;1.80;;
44456;SDS011;30159;49.316;8.558;2022-10-16T07:50:00;2.40;;;2.20;;
44456;SDS011;30159;49.316;8.558;2022-10-16T07:52:26;1.50;;;1.40;;
44456;SDS011;30159;49.316;8.558;2022-10-16T07:54:53;1.50;;;1.40;;
44456;SDS011;30159;49.316;8.558;2022-10-16T07:57:19;6.60;;;1.60;;
44456;SDS011;30159;49.316;8.558;2022-10-16T07:59:46;1.50;;;1.40;;
44456;SDS011;30159;49.316;8.558;2022-10-16T08:02:13;2.53;;;1.20;;
44456;SDS011;30159;49.316;8.558;2022-10-16T08:04:41;2.53;;;1.33;;
44456;SDS011;30159;49.316;8.558;2022-10-16T08:07:08;1.30;;;1.20;;
44456;SDS011;30159;49.316;8.558;2022-10-16T08:09:34;1.10;;;1.00;;
44456;SDS011;30159;49.316;8.558;2022-10-16T08:12:01;1.47;;;1.30;;
44456;SDS011;30159;49.316;8.558;2022-10-16T08:14:29;2.07;;;1.20;;
44456;SDS011;30159;49.316;8.558;2022-10-16T08:16:55;1.40;;;1.30;;
44456;SDS011;30159;49.316;8.558;2022-10-16T08:19:22;2.47;;;1.30;;
44456;SDS011;30159;49.316;8.558;2022-10-16T08:21:50;2.70;;;1.27;;
44456;SDS011;30159;49.316;8.558;2022-10-16T08:24:17;2.23;;;1.40;;
44456;SDS011;30159;49.316;8.558;2022-10-16T08:26:43;1.87;;;1.67;;
44456;SDS011;30159;49.316;8.558;2022-10-16T08:29:10;3.47;;;1.70;;
44456;SDS011;30159;49.316;8.558;2022-10-16T08:31:36;1.63;;;1.20;;
44456;SDS011;30159;49.316;8.558;2022-10-16T08:34:03;1.40;;;1.27;;
44456;SDS011;30159;49.316;8.558;2022-10-16T08:36:29;3.30;;;1.40;;
44456;SDS011;30159;49.316;8.558;2022-10-16T08:38:57;1.47;;;1.37;;
44456;SDS011;30159;49.316;8.558;2022-10-16T08:41:28;2.50;;;1.20;;
44456;SDS011;30159;49.316;8.558;2022-10-16T08:44:23;1.90;;;1.13;;
44456;SDS011;30159;49.316;8.558;2022-10-16T08:47:02;1.20;;;1.10;;
44456;SDS011;30159;49.316;8.558;2022-10-16T08:49:39;1.40;;;1.30;;
44456;SDS011;30159;49.316;8.558;2022-10-16T08:52:10;1.67;;;1.20;;
44456;SDS011;30159;49.316;8.558;2022-10-16T08:54:41;2.40;;;1.00;;
44456;SDS011;30159;49.316;8.558;2022-10-16T08:57:12;1.23;;;1.13;;
44456;SDS011;30159;49.316;8.558;2022-10-16T08:59:42;1.40;;;1.30;;
44456;SDS011;30159;49.316;8.558;2022-10-16T09:02:18;1.30;;;1.20;;
44456;SDS011;30159;49.316;8.558;2022-10-16T09:04:53;1.90;;;1.80;;
44456;SDS011;30159;49.316;8.558;2022-10-16T09:07:44;1.30;;;1.20;;
44456;SDS011;30159;49.316;8.558;2022-10-16T09:10:26;1.60;;;1.50;;
44456;SDS011;30159;49.316;8.558;2022-10-16T09:13:02;3.30;;;1.50;;
44456;SDS011;30159;49.316;8.558;2022-10-16T09:15:37;2.93;;;1.60;;
44456;SDS011;30159;49.316;8.558;2022-10-16T09:18:12;1.73;;;1.30;;
44456;SDS011;30159;49.316;8.558;2022-10-16T09:20:49;2.70;;;1.20;;
44456;SDS011;30159;49.316;8.558;2022-10-16T09:23:21;2.20;;;1.00;;
44456;SDS011;30159;49.316;8.558;2022-10-16T09:25:54;2.37;;;1.13;;
44456;SDS011;30159;49.316;8.558;2022-10-16T09:28:22;1.40;;;1.30;;
44456;SDS011;30159;49.316;8.558;2022-10-16T09:30:48;1.73;;;1.30;;
44456;SDS011;30159;49.316;8.558;2022-10-16T09:33:17;4.07;;;1.30;;
44456;SDS011;30159;49.316;8.558;2022-10-16T09:35:47;1.30;;;1.20;;
44456;SDS011;30159;49.316;8.558;2022-10-16T09:38:22;1.50;;;1.40;;
44456;SDS011;30159;49.316;8.558;2022-10-16T09:40:51;1.60;;;1.50;;
44456;SDS011;30159;49.316;8.558;2022-10-16T09:43:21;1.83;;;1.30;;
44456;SDS011;30159;49.316;8.558;2022-10-16T09:45:56;2.77;;;1.30;;
44456;SDS011;30159;49.316;8.558;2022-10-16T09:48:25;1.77;;;1.30;;
44456;SDS011;30159;49.316;8.558;2022-10-16T09:50:57;2.27;;;1.40;;
44456;SDS011;30159;49.316;8.558;2022-10-16T09:53:26;1.40;;;1.30;;
44456;SDS011;30159;49.316;8.558;2022-10-16T09:56:04;1.50;;;1.40;;
44456;SDS011;30159;49.316;8.558;2022-10-16T09:58:33;1.50;;;1.40;;
44456;SDS011;30159;49.316;8.558;2022-10-16T10:00:59;2.90;;;1.10;;
44456;SDS011;30159;49.316;8.558;2022-10-16T10:03:33;1.80;;;1.30;;
44456;SDS011;30159;49.316;8.558;2022-10-16T10:06:05;1.50;;;1.40;;
44456;SDS011;30159;49.316;8.558;2022-10-16T10:08:41;1.53;;;1.43;;
44456;SDS011;30159;49.316;8.558;2022-10-16T10:11:18;1.30;;;1.20;;
44456;SDS011;30159;49.316;8.558;2022-10-16T10:13:46;1.80;;;1.13;;
44456;SDS011;30159;49.316;8.558;2022-10-16T10:16:12;1.73;;;1.30;;
44456;SDS011;30159;49.316;8.558;2022-10-16T10:18:57;2.77;;;1.17;;
44456;SDS011;30159;49.316;8.558;2022-10-16T10:21:24;1.33;;;1.23;;
44456;SDS011;30159;49.316;8.558;2022-10-16T10:23:54;2.77;;;1.30;;
44456;SDS011;30159;49.316;8.558;2022-10-16T10:26:23;1.13;;;1.03;;
44456;SDS011;30159;49.316;8.558;2022-10-16T10:28:57;23.40;;;1.40;;
44456;SDS011;30159;49.316;8.558;2022-10-16T10:31:32;4.73;;;1.10;;
44456;SDS011;30159;49.316;8.558;2022-10-16T10:34:18;1.40;;;1.30;;
44456;SDS011;30159;49.316;8.558;2022-10-16T10:36:58;1.30;;;1.20;;
44456;SDS011;30159;49.316;8.558;2022-10-16T10:39:32;1.67;;;1.43;;
44456;SDS011;30159;49.316;8.558;2022-10-16T10:42:08;1.90;;;1.47;;
44456;SDS011;30159;49.316;8.558;2022-10-16T10:44:54;4.67;;;1.50;;
44456;SDS011;30159;49.316;8.558;2022-10-16T10:47:31;2.50;;;1.37;;
44456;SDS011;30159;49.316;8.558;2022-10-16T10:50:10;2.80;;;1.30;;
44456;SDS011;30159;49.316;8.558;2022-10-16T10:52:48;1.40;;;1.30;;
44456;SDS011;30159;49.316;8.558;2022-10-16T10:55:24;1.40;;;1.20;;
44456;SDS011;30159;49.316;8.558;2022-10-16T10:58:10;2.43;;;1.30;;
44456;SDS011;30159;49.316;8.558;2022-10-16T11:00:50;1.50;;;1.20;;
44456;SDS011;30159;49.316;8.558;2022-10-16T11:03:35;2.07;;;1.40;;
44456;SDS011;30159;49.316;8.558;2022-10-16T11:06:17;1.47;;;1.37;;
44456;SDS011;30159;49.316;8.558;2022-10-16T11:08:50;4.30;;;1.27;;
44456;SDS011;30159;49.316;8.558;2022-10-16T11:11:20;3.90;;;1.30;;
44456;SDS011;30159;49.316;8.558;2022-10-16T11:13:53;3.73;;;1.37;;
44456;SDS011;30159;49.316;8.558;2022-10-16T11:16:26;2.03;;;1.40;;
44456;SDS011;30159;49.316;8.558;2022-10-16T11:18:56;4.70;;;2.30;;
44456;SDS011;30159;49.316;8.558;2022-10-16T11:21:29;1.50;;;1.40;;
44456;SDS011;30159;49.316;8.558;2022-10-16T11:24:04;1.30;;;1.20;;
44456;SDS011;30159;49.316;8.558;2022-10-16T11:26:41;1.53;;;1.33;;
44456;SDS011;30159;49.316;8.558;2022-10-16T11:29:10;1.53;;;1.40;;
44456;SDS011;30159;49.316;8.558;2022-10-16T11:31:43;1.50;;;1.40;;
44456;SDS011;30159;49.316;8.558;2022-10-16T11:34:16;1.70;;;1.27;;
44456;SDS011;30159;49.316;8.558;2022-10-16T11:36:49;1.30;;;1.20;;
44456;SDS011;30159;49.316;8.558;2022-10-16T11:39:20;2.43;;;1.30;;
44456;SDS011;30159;49.316;8.558;2022-10-16T11:41:48;1.53;;;1.40;;
44456;SDS011;30159;49.316;8.558;2022-10-16T11:44:19;1.83;;;1.33;;
44456;SDS011;30159;49.316;8.558;2022-10-16T11:47:09;1.30;;;1.20;;
44456;SDS011;30159;49.316;8.558;2022-10-16T11:49:46;2.03;;;1.27;;
44456;SDS011;30159;49.316;8.558;2022-10-16T11:52:17;1.50;;;1.40;;
44456;SDS011;30159;49.316;8.558;2022-10-16T11:54:50;2.93;;;1.23;;
44456;SDS011;30159;49.316;8.558;2022-10-16T11:57:23;2.60;;;1.60;;
44456;SDS011;30159;49.316;8.558;2022-10-16T11:59:52;2.80;;;1.40;;
44456;SDS011;30159;49.316;8.558;2022-10-16T12:02:33;1.50;;;1.40;;
44456;SDS011;30159;49.316;8.558;2022-10-16T12:05:13;1.73;;;1.30;;
44456;SDS011;30159;49.316;8.558;2022-10-16T12:07:49;1.90;;;1.30;;
44456;SDS011;30159;49.316;8.558;2022-10-16T12:10:24;2.37;;;1.70;;
44456;SDS011;30159;49.316;8.558;2022-10-16T12:12:52;1.40;;;1.20;;
44456;SDS011;30159;49.316;8.558;2022-10-16T12:15:21;2.47;;;1.10;;
44456;SDS011;30159;49.316;8.558;2022-10-16T12:17:52;1.63;;;1.30;;
44456;SDS011;30159;49.316;8.558;2022-10-16T12:20:20;1.37;;;1.20;;
44456;SDS011;30159;49.316;8.558;2022-10-16T12:22:52;1.77;;;1.43;;
44456;SDS011;30159;49.316;8.558;2022-10-16T12:25:21;1.77;;;1.40;;
44456;SDS011;30159;49.316;8.558;2022-10-16T12:27:57;1.43;;;1.30;;
44456;SDS011;30159;49.316;8.558;2022-10-16T12:30:26;1.50;;;1.07;;
44456;SDS011;30159;49.316;8.558;2022-10-16T12:32:56;1.20;;;1.10;;
44456;SDS011;30159;49.316;8.558;2022-10-16T12:35:25;1.30;;;1.10;;
44456;SDS011;30159;49.316;8.558;2022-10-16T12:37:53;1.43;;;1.33;;
44456;SDS011;30159;49.316;8.558;2022-10-16T12:40:31;1.50;;;1.40;;
44456;SDS011;30159;49.316;8.558;2022-10-16T12:43:10;1.97;;;1.30;;
44456;SDS011;30159;49.316;8.558;2022-10-16T12:45:38;1.63;;;1.37;;
44456;SDS011;30159;49.316;8.558;2022-10-16T12:48:18;4.70;;;1.20;;
44456;SDS011;30159;49.316;8.558;2022-10-16T12:50:47;1.60;;;1.20;;
44456;SDS011;30159;49.316;8.558;2022-10-16T12:53:17;2.27;;;1.17;;
44456;SDS011;30159;49.316;8.558;2022-10-16T12:55:48;1.30;;;1.20;;
44456;SDS011;30159;49.316;8.558;2022-10-16T13:01:21;1.40;;;1.30;;
44456;SDS011;30159;49.316;8.558;2022-10-16T13:04:04;1.40;;;1.30;;
44456;SDS011;30159;49.316;8.558;2022-10-16T13:06:45;1.23;;;1.13;;
44456;SDS011;30159;49.316;8.558;2022-10-16T13:09:25;1.27;;;1.17;;
44456;SDS011;30159;49.316;8.558;2022-10-16T13:12:07;2.17;;;1.30;;
44456;SDS011;30159;49.316;8.558;2022-10-16T13:14:48;2.27;;;1.20;;
44456;SDS011;30159;49.316;8.558;2022-10-16T13:17:47;2.70;;;1.30;;
44456;SDS011;30159;49.316;8.558;2022-10-16T13:20:26;1.20;;;1.10;;
44456;SDS011;30159;49.316;8.558;2022-10-16T13:23:01;1.63;;;1.53;;
44456;SDS011;30159;49.316;8.558;2022-10-16T13:25:38;1.50;;;1.40;;
44456;SDS011;30159;49.316;8.558;2022-10-16T13:28:15;3.20;;;1.30;;
44456;SDS011;30159;49.316;8.558;2022-10-16T13:30:51;1.77;;;1.20;;
44456;SDS011;30159;49.316;8.558;2022-10-16T13:33:19;1.83;;;1.40;;
44456;SDS011;30159;49.316;8.558;2022-10-16T13:35:52;1.40;;;1.30;;
44456;SDS011;30159;49.316;8.558;2022-10-16T13:38:20;1.80;;;1.70;;
44456;SDS011;30159;49.316;8.558;2022-10-16T13:40:52;1.50;;;1.40;;
44456;SDS011;30159;49.316;8.558;2022-10-16T13:43:22;1.57;;;1.30;;
44456;SDS011;30159;49.316;8.558;2022-10-16T13:45:52;1.50;;;1.37;;
44456;SDS011;30159;49.316;8.558;2022-10-16T13:48:20;3.90;;;1.50;;
44456;SDS011;30159;49.316;8.558;2022-10-16T13:50:47;2.37;;;1.50;;
44456;SDS011;30159;49.316;8.558;2022-10-16T13:53:25;1.83;;;1.50;;
44456;SDS011;30159;49.316;8.558;2022-10-16T13:55:52;1.47;;;1.37;;
44456;SDS011;30159;49.316;8.558;2022-10-16T13:58:19;1.60;;;1.50;;
44456;SDS011;30159;49.316;8.558;2022-10-16T14:00:53;1.43;;;1.33;;
44456;SDS011;30159;49.316;8.558;2022-10-16T14:03:21;1.60;;;1.50;;
44456;SDS011;30159;49.316;8.558;2022-10-16T14:05:49;3.60;;;1.60;;
44456;SDS011;30159;49.316;8.558;2022-10-16T14:08:19;1.43;;;1.33;;
44456;SDS011;30159;49.316;8.558;2022-10-16T14:10:47;3.47;;;1.93;;
44456;SDS011;30159;49.316;8.558;2022-10-16T14:13:16;2.93;;;1.20;;
44456;SDS011;30159;49.316;8.558;2022-10-16T14:15:46;1.50;;;1.40;;
44456;SDS011;30159;49.316;8.558;2022-10-16T14:18:17;1.67;;;1.57;;
44456;SDS011;30159;49.316;8.558;2022-10-16T14:20:46;5.63;;;1.97;;
44456;SDS011;30159;49.316;8.558;2022-10-16T14:23:22;4.07;;;1.60;;
44456;SDS011;30159;49.316;8.558;2022-10-16T14:25:51;1.60;;;1.50;;
44456;SDS011;30159;49.316;8.558;2022-10-16T14:28:18;4.90;;;1.40;;
44456;SDS011;30159;49.316;8.558;2022-10-16T14:30:50;1.93;;;1.83;;
44456;SDS011;30159;49.316;8.558;2022-10-16T14:33:20;2.73;;;2.57;;
44456;SDS011;30159;49.316;8.558;2022-10-16T14:35:59;3.83;;;2.57;;
44456;SDS011;30159;49.316;8.558;2022-10-16T14:38:32;8.03;;;3.33;;
44456;SDS011;30159;49.316;8.558;2022-10-16T14:40:59;3.90;;;3.70;;
44456;SDS011;30159;49.316;8.558;2022-10-16T14:43:29;3.10;;;2.90;;
44456;SDS011;30159;49.316;8.558;2022-10-16T14:45:59;5.20;;;2.80;;
44456;SDS011;30159;49.316;8.558;2022-10-16T14:48:27;2.67;;;2.47;;
44456;SDS011;30159;49.316;8.558;2022-10-16T14:50:54;5.77;;;4.23;;
44456;SDS011;30159;49.316;8.558;2022-10-16T14:53:20;4.47;;;3.40;;
44456;SDS011;30159;49.316;8.558;2022-10-16T14:55:48;3.23;;;2.70;;
44456;SDS011;30159;49.316;8.558;2022-10-16T14:58:15;2.80;;;2.60;;
44456;SDS011;30159;49.316;8.558;2022-10-16T15:00:45;1.90;;;1.80;;
44456;SDS011;30159;49.316;8.558;2022-10-16T15:03:11;4.63;;;2.03;;
44456;SDS011;30159;49.316;8.558;2022-10-16T15:05:38;2.30;;;2.10;;
44456;SDS011;30159;49.316;8.558;2022-10-16T15:08:04;2.90;;;2.70;;
44456;SDS011;30159;49.316;8.558;2022-10-16T15:10:32;5.73;;;3.10;;
44456;SDS011;30159;49.316;8.558;2022-10-16T15:13:04;2.30;;;1.90;;
44456;SDS011;30159;49.316;8.558;2022-10-16T15:15:33;1.63;;;1.53;;
44456;SDS011;30159;49.316;8.558;2022-10-16T15:18:02;1.60;;;1.50;;
44456;SDS011;30159;49.316;8.558;2022-10-16T15:20:30;5.40;;;1.80;;
44456;SDS011;30159;49.316;8.558;2022-10-16T15:22:59;1.70;;;1.60;;
44456;SDS011;30159;49.316;8.558;2022-10-16T15:25:27;2.70;;;1.77;;
44456;SDS011;30159;49.316;8.558;2022-10-16T15:27:58;2.13;;;1.70;;
44456;SDS011;30159;49.316;8.558;2022-10-16T15:30:26;2.23;;;2.13;;
44456;SDS011;30159;49.316;8.558;2022-10-16T15:32:53;2.80;;;1.70;;
44456;SDS011;30159;49.316;8.558;2022-10-16T15:35:20;2.10;;;1.67;;
44456;SDS011;30159;49.316;8.558;2022-10-16T15:37:47;3.90;;;1.70;;
44456;SDS011;30159;49.316;8.558;2022-10-16T15:40:15;2.47;;;1.80;;
44456;SDS011;30159;49.316;8.558;2022-10-16T15:42:42;1.93;;;1.83;;
44456;SDS011;30159;49.316;8.558;2022-10-16T15:45:09;1.80;;;1.70;;
44456;SDS011;30159;49.316;8.558;2022-10-16T15:47:38;8.13;;;2.03;;
44456;SDS011;30159;49.316;8.558;2022-10-16T15:50:05;2.50;;;1.80;;
44456;SDS011;30159;49.316;8.558;2022-10-16T15:52:32;2.70;;;2.50;;
44456;SDS011;30159;49.316;8.558;2022-10-16T15:54:59;3.93;;;3.13;;
44456;SDS011;30159;49.316;8.558;2022-10-16T15:57:27;5.03;;;3.07;;
44456;SDS011;30159;49.316;8.558;2022-10-16T15:59:54;5.37;;;2.80;;
44456;SDS011;30159;49.316;8.558;2022-10-16T16:02:21;3.87;;;1.90;;
44456;SDS011;30159;49.316;8.558;2022-10-16T16:04:48;2.73;;;2.33;;
44456;SDS011;30159;49.316;8.558;2022-10-16T16:07:15;2.37;;;2.10;;
44456;SDS011;30159;49.316;8.558;2022-10-16T16:09:42;2.63;;;1.90;;
44456;SDS011;30159;49.316;8.558;2022-10-16T16:12:10;2.23;;;1.90;;
44456;SDS011;30159;49.316;8.558;2022-10-16T16:14:36;1.90;;;1.70;;
44456;SDS011;30159;49.316;8.558;2022-10-16T16:17:03;2.77;;;2.57;;
44456;SDS011;30159;49.316;8.558;2022-10-16T16:19:29;3.43;;;1.90;;
44456;SDS011;30159;49.316;8.558;2022-10-16T16:21:58;2.50;;;2.30;;
44456;SDS011;30159;49.316;8.558;2022-10-16T16:24:24;3.00;;;2.80;;